createdAt,value
2022-09-26T00:01:07.198Z,12.30
2022-09-26T00:03:35.197Z,12.30
2022-09-26T00:06:03.443Z,12.20
2022-09-26T00:08:31.074Z,12.20
2022-09-26T00:10:59.455Z,12.00
2022-09-26T00:13:27.674Z,12.00
2022-09-26T00:15:55.490Z,11.90
2022-09-26T00:18:23.347Z,11.80
2022-09-26T00:20:51.171Z,11.80
2022-09-26T00:23:18.596Z,11.80
2022-09-26T00:25:46.592Z,11.80
2022-09-26T00:28:14.169Z,11.70
2022-09-26T00:30:42.189Z,11.70
2022-09-26T00:33:09.601Z,11.70
2022-09-26T00:35:36.999Z,11.70
2022-09-26T00:38:05.346Z,11.60
2022-09-26T00:40:33.016Z,11.60
2022-09-26T00:43:00.405Z,11.70
2022-09-26T00:45:30.624Z,11.70
2022-09-26T00:48:02.526Z,11.60
2022-09-26T00:50:35.332Z,11.60
2022-09-26T00:53:06.209Z,11.60
2022-09-26T00:55:38.936Z,11.60
2022-09-26T00:58:09.448Z,11.70
2022-09-26T01:00:42.110Z,11.70
2022-09-26T01:03:10.316Z,11.70
2022-09-26T01:05:38.089Z,11.70
2022-09-26T01:08:05.956Z,11.70
2022-09-26T01:10:35.338Z,11.70
2022-09-26T01:13:02.755Z,11.60
2022-09-26T01:15:30.141Z,11.70
2022-09-26T01:17:57.562Z,11.70
2022-09-26T01:20:26.787Z,11.70
2022-09-26T01:23:00.299Z,11.70
2022-09-26T01:25:42.780Z,11.70
2022-09-26T01:28:19.807Z,11.70
2022-09-26T01:31:02.396Z,11.70
2022-09-26T01:33:38.031Z,11.70
2022-09-26T01:36:32.977Z,11.80
2022-09-26T01:39:00.370Z,11.80
2022-09-26T01:41:27.741Z,11.80
2022-09-26T01:43:59.715Z,11.80
2022-09-26T01:46:27.394Z,11.80
2022-09-26T01:49:01.468Z,11.80
2022-09-26T01:52:01.659Z,11.80
2022-09-26T01:54:36.126Z,11.90
2022-09-26T01:57:06.744Z,11.90
2022-09-26T01:59:37.209Z,11.90
2022-09-26T02:02:07.658Z,11.90
2022-09-26T02:04:37.967Z,12.00
2022-09-26T02:07:06.184Z,12.00
2022-09-26T02:09:40.161Z,12.10
2022-09-26T02:12:13.114Z,12.10
2022-09-26T02:14:43.300Z,12.10
2022-09-26T02:17:13.111Z,12.10
2022-09-26T02:19:47.937Z,12.10
2022-09-26T02:22:15.731Z,12.20
2022-09-26T02:24:43.119Z,12.10
2022-09-26T02:27:10.427Z,12.10
2022-09-26T02:29:40.550Z,12.10
2022-09-26T02:32:16.108Z,12.10
2022-09-26T02:34:45.750Z,12.10
2022-09-26T02:37:14.830Z,12.10
2022-09-26T02:39:42.282Z,12.10
2022-09-26T02:42:36.681Z,12.10
2022-09-26T02:45:23.274Z,12.10
2022-09-26T02:48:14.255Z,12.10
2022-09-26T02:50:50.528Z,12.10
2022-09-26T02:53:37.136Z,12.10
2022-09-26T02:56:15.459Z,12.10
2022-09-26T02:58:46.018Z,12.00
2022-09-26T03:01:40.465Z,12.00
2022-09-26T03:04:28.594Z,11.90
2022-09-26T03:07:00.115Z,11.80
2022-09-26T03:09:29.624Z,11.70
2022-09-26T03:11:59.072Z,11.70
2022-09-26T03:14:27.604Z,11.60
2022-09-26T03:16:55.149Z,11.60
2022-09-26T03:19:22.866Z,11.60
2022-09-26T03:21:50.345Z,11.50
2022-09-26T03:24:18.235Z,11.50
2022-09-26T03:26:47.616Z,11.40
2022-09-26T03:29:15.215Z,11.40
2022-09-26T03:31:42.769Z,11.40
2022-09-26T03:34:10.864Z,11.40
2022-09-26T03:36:39.893Z,11.40
2022-09-26T03:39:09.497Z,11.30
2022-09-26T03:41:44.133Z,11.30
2022-09-26T03:44:19.643Z,11.20
2022-09-26T03:47:06.941Z,11.20
2022-09-26T03:49:41.406Z,11.10
2022-09-26T03:52:10.753Z,11.10
2022-09-26T03:54:38.700Z,11.10
2022-09-26T03:57:06.087Z,11.10
2022-09-26T03:59:37.319Z,11.10
2022-09-26T04:02:06.501Z,11.00
2022-09-26T04:04:38.791Z,11.10
2022-09-26T04:07:06.295Z,11.00
2022-09-26T04:09:33.666Z,10.90
2022-09-26T04:12:01.507Z,10.90
2022-09-26T04:14:28.838Z,10.90
2022-09-26T04:16:59.603Z,10.80
2022-09-26T04:19:31.826Z,10.80
2022-09-26T04:21:59.915Z,10.80
2022-09-26T04:24:31.131Z,10.80
2022-09-26T04:26:59.731Z,10.70
2022-09-26T04:29:27.392Z,10.70
2022-09-26T04:32:02.473Z,10.60
2022-09-26T04:34:40.309Z,10.60
2022-09-26T04:37:10.195Z,10.50
2022-09-26T04:39:37.635Z,10.50
2022-09-26T04:42:05.038Z,10.50
2022-09-26T04:44:32.828Z,10.50
2022-09-26T04:47:00.206Z,10.40
2022-09-26T04:49:45.313Z,10.40
2022-09-26T04:52:13.292Z,10.40
2022-09-26T04:54:40.617Z,10.40
2022-09-26T04:57:07.936Z,10.30
2022-09-26T04:59:35.954Z,10.30
2022-09-26T05:02:06.439Z,10.30
2022-09-26T05:04:41.348Z,10.20
2022-09-26T05:07:08.721Z,10.10
2022-09-26T05:09:36.477Z,10.10
2022-09-26T05:12:18.249Z,10.00
2022-09-26T05:14:49.818Z,9.90
2022-09-26T05:17:17.294Z,9.90
2022-09-26T05:19:47.051Z,9.80
2022-09-26T05:22:16.930Z,9.80
2022-09-26T05:25:02.909Z,9.80
2022-09-26T05:27:30.462Z,9.90
2022-09-26T05:29:58.159Z,9.90
2022-09-26T05:32:29.026Z,9.80
2022-09-26T05:34:57.055Z,9.90
2022-09-26T05:37:25.980Z,9.80
2022-09-26T05:40:12.806Z,9.90
2022-09-26T05:42:45.846Z,9.80
2022-09-26T05:45:15.708Z,9.80
2022-09-26T05:47:43.858Z,9.90
2022-09-26T05:50:11.959Z,9.90
2022-09-26T05:52:40.511Z,9.90
2022-09-26T05:55:11.958Z,9.90
2022-09-26T05:58:09.880Z,9.90
2022-09-26T06:01:00.464Z,9.90
2022-09-26T06:03:34.653Z,9.90
2022-09-26T06:06:19.387Z,9.90
2022-09-26T06:08:48.280Z,9.90
2022-09-26T06:11:38.560Z,9.80
2022-09-26T06:14:08.273Z,9.80
2022-09-26T06:16:36.403Z,9.80
2022-09-26T06:19:03.976Z,9.70
2022-09-26T06:21:31.485Z,9.70
2022-09-26T06:24:08.936Z,9.60
2022-09-26T06:26:37.735Z,9.60
2022-09-26T06:29:05.605Z,9.60
2022-09-26T06:31:35.929Z,9.60
2022-09-26T06:34:13.144Z,9.60
2022-09-26T06:36:49.525Z,9.70
2022-09-26T06:39:17.186Z,9.80
2022-09-26T06:41:46.432Z,9.80
2022-09-26T06:44:29.374Z,9.80
2022-09-26T06:47:15.301Z,9.80
2022-09-26T06:49:45.206Z,9.90
2022-09-26T06:52:24.248Z,9.90
2022-09-26T06:54:51.805Z,9.90
2022-09-26T06:57:19.133Z,9.90
2022-09-26T06:59:46.468Z,10.00
2022-09-26T07:02:31.818Z,10.10
2022-09-26T07:05:16.574Z,10.10
2022-09-26T07:07:55.174Z,10.10
2022-09-26T07:10:30.342Z,10.10
2022-09-26T07:13:06.519Z,10.20
2022-09-26T07:15:34.853Z,10.20
2022-09-26T07:18:10.123Z,10.20
2022-09-26T07:21:04.623Z,10.20
2022-09-26T07:23:46.927Z,10.10
2022-09-26T07:26:16.336Z,10.00
2022-09-26T07:28:44.718Z,9.90
2022-09-26T07:31:12.262Z,9.90
2022-09-26T07:33:58.479Z,9.80
2022-09-26T07:36:25.824Z,9.80
2022-09-26T07:38:54.088Z,9.70
2022-09-26T07:41:21.729Z,9.70
2022-09-26T07:44:58.898Z,9.70
2022-09-26T07:46:55.973Z,9.80
2022-09-26T07:49:43.400Z,9.70
2022-09-26T07:52:35.055Z,9.70
2022-09-26T07:55:25.475Z,9.80
2022-09-26T07:58:10.606Z,9.90
2022-09-26T08:01:11.558Z,9.90
2022-09-26T08:03:58.316Z,10.00
2022-09-26T08:06:36.789Z,9.90
2022-09-26T08:09:04.444Z,9.80
2022-09-26T08:11:50.194Z,9.70
2022-09-26T08:14:37.529Z,9.70
2022-09-26T08:17:18.369Z,9.70
2022-09-26T08:19:46.188Z,9.70
2022-09-26T08:22:14.544Z,9.70
2022-09-26T08:24:44.307Z,9.80
2022-09-26T08:27:23.177Z,9.80
2022-09-26T08:29:51.596Z,9.90
2022-09-26T08:32:20.276Z,10.00
2022-09-26T08:34:47.769Z,10.00
2022-09-26T08:37:33.641Z,10.00
2022-09-26T08:40:23.280Z,10.00
2022-09-26T08:43:19.570Z,10.00
2022-09-26T08:46:21.576Z,10.10
2022-09-26T08:49:29.274Z,10.10
2022-09-26T08:51:58.933Z,10.10
2022-09-26T08:54:40.898Z,10.10
2022-09-26T08:57:14.646Z,10.10
2022-09-26T08:59:46.642Z,10.00
2022-09-26T09:02:16.684Z,9.90
2022-09-26T09:05:03.027Z,9.80
2022-09-26T09:07:32.424Z,9.90
2022-09-26T09:10:03.288Z,9.80
2022-09-26T09:12:48.353Z,9.90
2022-09-26T09:15:35.787Z,10.00
2022-09-26T09:18:50.625Z,10.10
2022-09-26T09:21:41.839Z,10.20
2022-09-26T09:24:41.913Z,10.30
2022-09-26T09:30:22.611Z,10.30
2022-09-26T09:32:57.895Z,10.40
2022-09-26T09:35:44.803Z,10.50
2022-09-26T09:38:49.123Z,10.60
2022-09-26T09:41:46.911Z,10.90
2022-09-26T09:44:45.660Z,11.10
2022-09-26T09:47:18.383Z,11.20
2022-09-26T09:49:47.419Z,11.30
2022-09-26T09:52:34.269Z,11.20
2022-09-26T09:55:23.203Z,11.20
2022-09-26T09:58:03.301Z,11.20
2022-09-26T10:00:34.058Z,11.30
2022-09-26T10:03:26.769Z,11.50
2022-09-26T10:06:00.543Z,11.60
2022-09-26T10:08:33.212Z,11.60
2022-09-26T10:11:24.122Z,11.70
2022-09-26T10:14:03.463Z,11.80
2022-09-26T10:17:04.920Z,11.90
2022-09-26T10:19:37.543Z,12.00
2022-09-26T10:22:17.294Z,12.10
2022-09-26T10:24:46.501Z,12.10
2022-09-26T10:27:25.486Z,12.10
2022-09-26T10:30:00.070Z,12.20
2022-09-26T10:32:29.027Z,12.30
2022-09-26T10:35:24.184Z,12.40
2022-09-26T10:38:00.795Z,12.40
2022-09-26T10:40:45.306Z,12.40
2022-09-26T10:43:22.614Z,12.50
2022-09-26T10:45:54.864Z,12.80
2022-09-26T10:48:51.946Z,12.80
2022-09-26T10:51:45.515Z,12.80
2022-09-26T10:54:25.403Z,12.80
2022-09-26T10:56:59.394Z,12.70
2022-09-26T10:59:31.561Z,12.70
2022-09-26T11:01:59.558Z,12.60
2022-09-26T11:04:47.668Z,12.60
2022-09-26T11:07:38.392Z,12.50
2022-09-26T11:10:27.096Z,12.40
2022-09-26T11:13:16.638Z,12.40
2022-09-26T11:16:01.486Z,12.60
2022-09-26T11:18:43.139Z,12.80
2022-09-26T11:21:31.656Z,13.20
2022-09-26T11:24:19.508Z,13.30
2022-09-26T11:27:05.680Z,13.20
2022-09-26T11:29:36.749Z,13.10
2022-09-26T11:32:16.231Z,13.10
2022-09-26T11:35:13.913Z,13.10
2022-09-26T11:37:45.410Z,13.20
2022-09-26T11:40:32.097Z,13.20
2022-09-26T11:43:13.675Z,13.30
2022-09-26T11:45:47.657Z,13.30
2022-09-26T11:49:01.079Z,13.30
2022-09-26T11:52:29.841Z,13.30
2022-09-26T11:55:09.221Z,13.40
2022-09-26T11:57:55.466Z,13.50
2022-09-26T12:00:27.682Z,13.50
2022-09-26T12:03:01.431Z,13.50
2022-09-26T12:05:38.108Z,13.40
2022-09-26T12:08:19.389Z,13.40
2022-09-26T12:10:56.738Z,13.40
2022-09-26T12:13:35.026Z,13.40
2022-09-26T12:16:10.007Z,13.50
2022-09-26T12:18:40.525Z,13.60
2022-09-26T12:21:23.262Z,13.70
2022-09-26T12:23:54.879Z,13.70
2022-09-26T12:26:34.891Z,13.80
2022-09-26T12:29:05.268Z,14.00
2022-09-26T12:31:44.969Z,13.90
2022-09-26T12:34:12.479Z,13.80
2022-09-26T12:36:54.755Z,13.50
2022-09-26T12:39:22.183Z,13.40
2022-09-26T12:41:52.610Z,13.30
2022-09-26T12:44:32.383Z,13.20
2022-09-26T12:47:00.105Z,13.30
2022-09-26T12:49:33.501Z,13.70
2022-09-26T12:52:13.056Z,13.90
2022-09-26T12:55:00.728Z,14.00
2022-09-26T12:57:31.277Z,13.90
2022-09-26T13:00:25.347Z,14.00
2022-09-26T13:02:56.024Z,14.00
2022-09-26T13:05:42.510Z,14.00
2022-09-26T13:08:09.869Z,13.80
2022-09-26T13:11:10.390Z,13.70
2022-09-26T13:13:40.827Z,13.60
2022-09-26T13:16:13.580Z,13.60
2022-09-26T13:18:44.939Z,13.80
2022-09-26T13:21:31.365Z,13.80
2022-09-26T13:24:00.283Z,13.80
2022-09-26T13:26:33.805Z,13.70
2022-09-26T13:29:17.145Z,13.70
2022-09-26T13:32:03.782Z,13.60
2022-09-26T13:34:37.524Z,13.60
2022-09-26T13:37:10.062Z,13.50
2022-09-26T13:39:49.576Z,13.60
2022-09-26T13:42:43.227Z,13.80
2022-09-26T13:45:16.655Z,13.70
2022-09-26T13:47:56.090Z,13.60
2022-09-26T13:50:56.078Z,13.70
2022-09-26T13:53:39.604Z,14.00
2022-09-26T13:56:27.548Z,14.30
2022-09-26T13:59:14.428Z,14.30
2022-09-26T14:02:00.533Z,14.40
2022-09-26T14:04:34.119Z,14.60
2022-09-26T14:07:24.573Z,14.70
2022-09-26T14:09:55.547Z,14.80
2022-09-26T14:12:42.535Z,14.80
2022-09-26T14:15:24.253Z,14.90
2022-09-26T14:17:51.690Z,14.80
2022-09-26T14:20:31.126Z,14.60
2022-09-26T14:23:00.717Z,14.40
2022-09-26T14:25:51.386Z,14.30
2022-09-26T14:28:32.668Z,14.20
2022-09-26T14:31:17.773Z,13.90
2022-09-26T14:33:45.615Z,13.80
2022-09-26T14:36:24.853Z,13.60
2022-09-26T14:38:53.609Z,13.60
2022-09-26T14:41:22.295Z,13.60
2022-09-26T14:43:51.410Z,13.60
2022-09-26T14:46:23.043Z,13.80
2022-09-26T14:48:58.346Z,13.80
2022-09-26T14:51:48.497Z,13.80
2022-09-26T14:54:22.486Z,13.70
2022-09-26T14:56:51.499Z,13.70
2022-09-26T14:59:25.009Z,13.70
2022-09-26T15:01:53.228Z,13.80
2022-09-26T15:04:23.898Z,13.90
2022-09-26T15:06:52.732Z,13.90
2022-09-26T15:09:22.124Z,14.00
2022-09-26T15:11:55.194Z,14.10
2022-09-26T15:14:35.388Z,14.30
2022-09-26T15:17:04.464Z,14.40
2022-09-26T15:19:34.830Z,14.40
2022-09-26T15:22:13.170Z,14.30
2022-09-26T15:24:40.619Z,14.20
2022-09-26T15:27:08.330Z,13.90
2022-09-26T15:29:36.632Z,13.80
2022-09-26T15:32:04.007Z,13.60
2022-09-26T15:34:35.711Z,13.40
2022-09-26T15:37:09.480Z,13.30
2022-09-26T15:39:38.099Z,13.10
2022-09-26T15:42:33.370Z,12.60
2022-09-26T15:45:01.702Z,12.10
2022-09-26T15:47:29.026Z,11.60
2022-09-26T15:50:02.528Z,11.40
2022-09-26T15:52:30.710Z,11.30
2022-09-26T15:54:58.295Z,11.30
2022-09-26T15:57:27.074Z,11.30
2022-09-26T15:59:54.524Z,11.30
2022-09-26T16:02:23.783Z,11.30
2022-09-26T16:04:52.783Z,11.30
2022-09-26T16:07:23.004Z,11.30
2022-09-26T16:09:51.512Z,11.20
2022-09-26T16:12:20.078Z,11.30
2022-09-26T16:14:47.555Z,11.30
2022-09-26T16:17:24.112Z,11.40
2022-09-26T16:19:55.768Z,11.50
2022-09-26T16:22:44.795Z,11.50
2022-09-26T16:25:15.239Z,11.50
2022-09-26T16:27:43.244Z,11.30
2022-09-26T16:30:26.410Z,11.10
2022-09-26T16:33:03.031Z,10.80
2022-09-26T16:35:31.719Z,10.50
2022-09-26T16:38:17.698Z,10.40
2022-09-26T16:40:55.590Z,10.30
2022-09-26T16:43:27.389Z,10.10
2022-09-26T16:46:17.750Z,10.00
2022-09-26T16:48:51.120Z,9.90
2022-09-26T16:51:27.113Z,9.90
2022-09-26T16:53:58.495Z,9.80
2022-09-26T16:56:27.440Z,9.80
2022-09-26T16:59:01.419Z,9.80
2022-09-26T17:01:47.775Z,9.70
2022-09-26T17:04:19.017Z,9.70
2022-09-26T17:06:47.335Z,9.80
2022-09-26T17:09:28.175Z,9.80
2022-09-26T17:12:05.889Z,9.80
2022-09-26T17:14:40.591Z,9.80
2022-09-26T17:17:12.979Z,9.90
2022-09-26T17:19:41.123Z,9.90
2022-09-26T17:22:34.777Z,10.00
2022-09-26T17:25:02.547Z,10.10
2022-09-26T17:27:34.138Z,10.10
2022-09-26T17:30:02.763Z,10.00
2022-09-26T17:32:37.759Z,9.90
2022-09-26T17:35:17.127Z,9.80
2022-09-26T17:37:44.815Z,9.80
2022-09-26T17:40:18.883Z,9.70
2022-09-26T17:42:47.507Z,9.70
2022-09-26T17:45:14.922Z,9.70
2022-09-26T17:47:42.348Z,9.80
2022-09-26T17:50:25.318Z,9.70
2022-09-26T17:52:54.293Z,9.70
2022-09-26T17:55:21.696Z,9.70
2022-09-26T17:57:49.122Z,9.70
2022-09-26T18:00:18.308Z,9.70
2022-09-26T18:03:01.477Z,9.60
2022-09-26T18:05:31.116Z,9.60
2022-09-26T18:08:01.676Z,9.50
2022-09-26T18:10:30.736Z,9.50
2022-09-26T18:13:03.626Z,9.50
2022-09-26T18:15:31.114Z,9.50
2022-09-26T18:18:00.354Z,9.40
2022-09-26T18:20:35.513Z,9.40
2022-09-26T18:23:05.207Z,9.40
2022-09-26T18:25:33.243Z,9.30
2022-09-26T18:28:04.880Z,9.30
2022-09-26T18:30:32.383Z,9.30
2022-09-26T18:32:59.908Z,9.30
2022-09-26T18:35:27.750Z,9.20
2022-09-26T18:37:55.870Z,9.20
2022-09-26T18:40:24.351Z,9.10
2022-09-26T18:42:54.820Z,9.10
2022-09-26T18:45:25.595Z,9.10
2022-09-26T18:47:53.333Z,9.00
2022-09-26T18:50:34.272Z,9.00
2022-09-26T18:53:01.742Z,9.00
2022-09-26T18:55:47.826Z,9.00
2022-09-26T18:58:27.265Z,9.00
2022-09-26T19:00:56.712Z,9.00
2022-09-26T19:03:24.918Z,9.10
2022-09-26T19:05:53.751Z,9.10
2022-09-26T19:08:33.591Z,9.10
2022-09-26T19:11:13.179Z,9.00
2022-09-26T19:13:41.453Z,9.00
2022-09-26T19:16:09.016Z,8.90
2022-09-26T19:18:36.765Z,8.90
2022-09-26T19:21:05.357Z,8.90
2022-09-26T19:23:34.695Z,8.90
2022-09-26T19:26:03.208Z,8.90
2022-09-26T19:28:32.318Z,9.00
2022-09-26T19:31:00.598Z,8.90
2022-09-26T19:33:28.155Z,8.90
2022-09-26T19:35:55.994Z,8.90
2022-09-26T19:38:24.699Z,8.90
2022-09-26T19:40:53.746Z,8.90
2022-09-26T19:43:21.542Z,8.80
2022-09-26T19:45:51.534Z,8.80
2022-09-26T19:48:21.487Z,8.90
2022-09-26T19:50:49.503Z,8.90
2022-09-26T19:53:18.116Z,9.00
2022-09-26T19:55:50.319Z,9.10
2022-09-26T19:58:19.610Z,9.10
2022-09-26T20:00:54.546Z,9.10
2022-09-26T20:03:41.775Z,9.10
2022-09-26T20:06:14.234Z,9.00
2022-09-26T20:08:41.611Z,8.90
2022-09-26T20:11:11.395Z,8.80
2022-09-26T20:14:10.903Z,8.70
2022-09-26T20:16:40.769Z,8.60
2022-09-26T20:19:13.209Z,8.50
2022-09-26T20:21:40.593Z,8.50
2022-09-26T20:24:13.263Z,8.50
2022-09-26T20:26:40.995Z,8.50
2022-09-26T20:29:13.839Z,8.50
2022-09-26T20:31:43.718Z,8.50
2022-09-26T20:34:11.620Z,8.60
2022-09-26T20:36:46.115Z,8.60
2022-09-26T20:39:15.957Z,8.50
2022-09-26T20:41:43.985Z,8.50
2022-09-26T20:44:13.933Z,8.40
2022-09-26T20:46:51.493Z,8.30
2022-09-26T20:49:25.696Z,8.30
2022-09-26T20:51:53.618Z,8.20
2022-09-26T20:54:28.828Z,8.20
2022-09-26T20:56:56.692Z,8.10
2022-09-26T20:59:24.695Z,8.10
2022-09-26T21:01:53.002Z,8.10
2022-09-26T21:04:23.702Z,8.10
2022-09-26T21:06:51.087Z,8.10
2022-09-26T21:09:19.904Z,8.20
2022-09-26T21:11:48.987Z,8.20
2022-09-26T21:14:19.583Z,8.20
2022-09-26T21:16:53.709Z,8.10
2022-09-26T21:19:22.690Z,8.10
2022-09-26T21:21:56.733Z,8.10
2022-09-26T21:24:38.784Z,8.10
2022-09-26T21:27:10.773Z,8.00
2022-09-26T21:29:38.464Z,8.00
2022-09-26T21:32:07.543Z,8.10
2022-09-26T21:34:35.041Z,8.10
2022-09-26T21:37:03.873Z,8.20
2022-09-26T21:39:31.395Z,8.30
2022-09-26T21:42:01.720Z,8.30
2022-09-26T21:44:43.295Z,8.30
2022-09-26T21:47:10.694Z,8.30
2022-09-26T21:49:38.178Z,8.30
2022-09-26T21:52:15.114Z,8.30
2022-09-26T21:54:43.437Z,8.30
2022-09-26T21:57:13.741Z,8.30
2022-09-26T21:59:41.403Z,8.40
2022-09-26T22:02:08.807Z,8.40
2022-09-26T22:04:36.211Z,8.40
2022-09-26T22:07:03.572Z,8.30
2022-09-26T22:09:30.946Z,8.20
2022-09-26T22:11:59.323Z,8.10
2022-09-26T22:14:28.526Z,8.00
2022-09-26T22:16:56.007Z,7.90
2022-09-26T22:19:23.704Z,7.80
2022-09-26T22:21:51.290Z,7.80
2022-09-26T22:24:18.839Z,7.80
2022-09-26T22:26:46.179Z,7.70
2022-09-26T22:29:13.645Z,7.70
2022-09-26T22:31:41.764Z,7.70
2022-09-26T22:34:09.116Z,7.80
2022-09-26T22:36:36.612Z,7.80
2022-09-26T22:39:04.043Z,7.70
2022-09-26T22:41:31.787Z,7.70
2022-09-26T22:43:59.643Z,7.60
2022-09-26T22:46:27.119Z,7.60
2022-09-26T22:48:54.516Z,7.60
2022-09-26T22:51:21.865Z,7.50
2022-09-26T22:53:49.236Z,7.50
2022-09-26T22:56:16.624Z,7.50
2022-09-26T22:58:45.465Z,7.50
2022-09-26T23:01:18.324Z,7.50
2022-09-26T23:03:46.088Z,7.60
2022-09-26T23:06:13.804Z,7.50
2022-09-26T23:08:41.199Z,7.60
2022-09-26T23:11:11.639Z,7.60
2022-09-26T23:13:39.556Z,7.60
2022-09-26T23:16:08.442Z,7.60
2022-09-26T23:18:37.011Z,7.60
2022-09-26T23:21:08.537Z,7.60
2022-09-26T23:23:36.294Z,7.60
2022-09-26T23:26:04.978Z,7.60
2022-09-26T23:28:33.447Z,7.60
2022-09-26T23:31:07.711Z,7.60
2022-09-26T23:33:35.549Z,7.60
2022-09-26T23:36:02.980Z,7.60
2022-09-26T23:38:30.390Z,7.60
2022-09-26T23:40:57.847Z,7.60
2022-09-26T23:43:25.258Z,7.60
2022-09-26T23:45:52.649Z,7.50
2022-09-26T23:48:20.030Z,7.50
2022-09-26T23:50:47.554Z,7.50
2022-09-26T23:53:15.245Z,7.40
2022-09-26T23:55:43.083Z,7.40
2022-09-26T23:58:11.287Z,7.40
